Time;durP1;ratioP1;P1;durP2;ratioP2;P2;SDS_P1;SDS_P2;PMS_P1;PMS_P2;Temp;Humidity;BMP_temperature;BMP_pressure;BME280_temperature;BME280_humidity;BME280_pressure;Samples;Min_cycle;Max_cycle;Signal;HPM_P1;HPM_P2
2021/12/28 12:42:35;;;;;;;11.35;3.83;;;10.30;99.90;;;;;;5093815;27;20489;-52
2021/12/28 12:45:02;;;;;;;13.45;3.80;;;10.30;99.90;;;;;;5093901;28;20403;-58
2021/12/28 12:47:29;;;;;;;13.02;4.32;;;10.40;99.90;;;;;;5093741;28;20131;-57
2021/12/28 12:50:08;;;;;;;17.67;4.45;;;10.40;99.90;;;;;;5091584;28;20619;-59
2021/12/28 12:52:35;;;;;;;14.15;4.32;;;10.50;99.90;;;;;;5091701;28;20048;-57
2021/12/28 12:55:04;;;;;;;9.75;3.47;;;10.60;99.90;;;;;;5075746;28;20135;-59
2021/12/28 12:57:31;;;;;;;12.05;4.78;;;10.80;99.90;;;;;;5088649;28;20047;-58
2021/12/28 13:00:15;;;;;;;13.02;2.90;;;10.90;99.90;;;;;;5094019;28;20115;-58
2021/12/28 13:02:43;;;;;;;13.15;3.03;;;11.00;99.90;;;;;;5092865;28;20076;-59
2021/12/28 13:05:21;;;;;;;11.57;3.38;;;11.20;99.90;;;;;;5094955;28;20441;-58
2021/12/28 13:07:49;;;;;;;15.85;4.10;;;11.20;99.90;;;;;;5095868;28;20059;-58
2021/12/28 13:10:23;;;;;;;11.20;2.95;;;11.30;99.90;;;;;;5094378;28;20143;-57
2021/12/28 13:12:54;;;;;;;9.90;3.50;;;11.40;99.90;;;;;;5092386;28;20157;-59
2021/12/28 13:15:25;;;;;;;9.25;2.90;;;11.40;99.90;;;;;;5093104;28;20054;-58
2021/12/28 13:17:52;;;;;;;11.27;3.50;;;11.50;99.90;;;;;;5093574;28;20133;-58
2021/12/28 13:20:21;;;;;;;8.48;2.58;;;11.50;99.90;;;;;;5095010;28;20489;-56
2021/12/28 13:22:57;;;;;;;9.65;2.75;;;11.60;99.90;;;;;;5092799;28;20732;-59
2021/12/28 13:25:33;;;;;;;12.45;3.15;;;11.70;99.90;;;;;;5092372;28;20056;-59
2021/12/28 13:28:01;;;;;;;8.33;2.70;;;11.70;99.90;;;;;;5092640;28;20591;-59
2021/12/28 13:30:30;;;;;;;7.72;2.35;;;11.70;99.90;;;;;;5090840;28;20300;-58
2021/12/28 13:33:19;;;;;;;8.88;2.30;;;11.70;99.90;;;;;;5091702;28;20163;-59
2021/12/28 13:35:48;;;;;;;12.50;2.90;;;11.80;99.90;;;;;;5090147;28;21041;-58
2021/12/28 13:38:17;;;;;;;6.00;1.90;;;11.80;99.90;;;;;;5091868;28;20044;-59
2021/12/28 13:40:56;;;;;;;9.63;2.13;;;11.80;99.90;;;;;;5093362;28;20153;-57
2021/12/28 13:43:33;;;;;;;7.25;2.58;;;11.80;99.90;;;;;;5091784;28;20060;-55
2021/12/28 13:46:09;;;;;;;6.45;1.85;;;11.80;99.90;;;;;;5093034;28;20051;-59
2021/12/28 13:48:49;;;;;;;8.57;2.38;;;11.90;99.90;;;;;;5092427;28;20351;-59
2021/12/28 13:51:17;;;;;;;8.48;2.45;;;11.90;99.90;;;;;;5093525;28;20047;-59
2021/12/28 13:54:07;;;;;;;5.85;2.15;;;12.00;99.90;;;;;;5077860;28;20113;-59
2021/12/28 13:56:41;;;;;;;5.57;2.17;;;12.10;99.90;;;;;;5073853;28;20522;-59
2021/12/28 13:59:09;;;;;;;6.07;1.50;;;12.20;99.90;;;;;;5075122;28;20059;-58
2021/12/28 14:01:41;;;;;;;3.40;1.55;;;12.20;99.90;;;;;;5077733;28;20084;-58
2021/12/28 14:04:16;;;;;;;4.22;1.67;;;12.10;99.90;;;;;;5079122;28;20040;-59
2021/12/28 14:06:44;;;;;;;5.07;1.85;;;12.00;99.90;;;;;;5076878;28;20048;-59
2021/12/28 14:09:15;;;;;;;5.57;1.48;;;12.00;99.90;;;;;;5078616;28;20048;-59
2021/12/28 14:11:45;;;;;;;3.53;1.40;;;11.90;99.90;;;;;;5078146;28;20052;-58
2021/12/28 14:14:15;;;;;;;3.20;1.00;;;11.90;99.90;;;;;;5074627;28;20135;-59
2021/12/28 14:16:56;;;;;;;1.98;1.15;;;11.90;99.90;;;;;;5072377;28;20094;-58
2021/12/28 14:19:28;;;;;;;2.78;1.00;;;11.90;99.90;;;;;;5068186;28;20078;-59
2021/12/28 14:21:54;;;;;;;3.03;1.35;;;11.80;99.90;;;;;;5078274;28;20075;-59
2021/12/28 14:24:29;;;;;;;3.88;1.33;;;11.80;99.90;;;;;;5079212;28;20048;-59
2021/12/28 14:26:57;;;;;;;3.28;1.30;;;11.80;99.90;;;;;;5061886;28;20138;-58
2021/12/28 14:29:25;;;;;;;4.28;1.48;;;11.80;99.90;;;;;;5078346;28;20074;-57
2021/12/28 14:31:57;;;;;;;2.33;0.80;;;11.80;99.90;;;;;;5076487;28;20674;-58
2021/12/28 14:34:31;;;;;;;4.90;1.58;;;11.80;99.90;;;;;;5077318;28;20439;-59
2021/12/28 14:37:11;;;;;;;2.88;1.15;;;11.80;99.90;;;;;;5078648;28;20059;-59
2021/12/28 14:39:55;;;;;;;1.80;0.80;;;11.70;99.90;;;;;;5079843;28;20058;-58
2021/12/28 14:42:29;;;;;;;2.95;1.00;;;11.80;99.90;;;;;;5078745;28;20097;-59
2021/12/28 14:45:02;;;;;;;2.97;0.90;;;11.80;99.90;;;;;;5077726;28;20075;-58
2021/12/28 14:47:30;;;;;;;2.40;0.85;;;11.90;99.90;;;;;;5075533;28;20223;-59
2021/12/28 14:50:00;;;;;;;1.30;0.90;;;11.90;99.90;;;;;;5077867;28;20036;-58
2021/12/28 14:52:32;;;;;;;1.42;0.95;;;11.90;99.90;;;;;;5077248;28;20079;-59
2021/12/28 14:55:04;;;;;;;1.70;1.10;;;11.90;99.90;;;;;;5076672;28;20101;-58
2021/12/28 14:57:42;;;;;;;1.80;0.77;;;11.90;99.90;;;;;;5078584;28;20508;-59
2021/12/28 15:00:26;;;;;;;2.70;1.10;;;11.90;99.90;;;;;;5076403;28;20524;-59
2021/12/28 15:03:01;;;;;;;1.60;0.85;;;11.90;99.90;;;;;;5077822;28;20365;-59
2021/12/28 15:05:31;;;;;;;2.53;1.00;;;11.80;99.90;;;;;;5077548;28;20167;-59
2021/12/28 15:08:09;;;;;;;2.00;1.02;;;11.80;99.90;;;;;;5079001;28;20057;-59
2021/12/28 15:10:38;;;;;;;1.52;0.70;;;11.70;99.90;;;;;;5077324;28;20162;-59
2021/12/28 15:13:06;;;;;;;1.65;0.95;;;11.70;99.90;;;;;;5076350;28;20048;-59
2021/12/28 15:15:33;;;;;;;2.28;0.93;;;11.70;99.90;;;;;;5076765;28;20518;-59
2021/12/28 15:18:01;;;;;;;1.30;0.75;;;11.70;99.90;;;;;;5075637;28;20048;-59
2021/12/28 15:20:28;;;;;;;1.02;0.60;;;11.60;99.90;;;;;;5075683;28;20167;-59
2021/12/28 15:22:55;;;;;;;1.98;0.90;;;11.60;99.90;;;;;;5077176;28;20044;-59
2021/12/28 15:25:22;;;;;;;1.88;0.85;;;11.60;99.90;;;;;;5074852;28;20464;-59
2021/12/28 15:27:52;;;;;;;1.67;1.05;;;11.60;99.90;;;;;;5076666;28;20162;-59
2021/12/28 15:30:22;;;;;;;1.30;0.70;;;11.60;99.90;;;;;;5076869;28;20044;-58
2021/12/28 15:32:51;;;;;;;2.05;0.80;;;11.60;99.90;;;;;;5078497;28;20055;-59
2021/12/28 15:35:23;;;;;;;1.63;0.77;;;11.60;99.90;;;;;;5078013;28;20044;-58
2021/12/28 15:37:50;;;;;;;0.98;0.75;;;11.60;99.90;;;;;;5075751;28;20168;-59
2021/12/28 15:40:17;;;;;;;1.45;0.70;;;11.50;99.90;;;;;;5076793;28;20113;-59
2021/12/28 15:42:45;;;;;;;0.82;0.77;;;11.60;99.90;;;;;;5076964;28;20099;-58
2021/12/28 15:45:13;;;;;;;1.40;0.63;;;11.50;99.90;;;;;;5076520;28;20143;-59
2021/12/28 15:47:41;;;;;;;1.63;0.73;;;11.60;99.90;;;;;;5076746;28;20052;-59
2021/12/28 15:50:20;;;;;;;0.98;0.70;;;11.60;99.90;;;;;;5075205;28;20672;-59
2021/12/28 15:52:47;;;;;;;1.73;0.80;;;11.60;99.90;;;;;;5076848;28;20055;-54
2021/12/28 15:55:14;;;;;;;1.50;0.85;;;11.60;99.90;;;;;;5076800;28;20135;-59
2021/12/28 15:57:41;;;;;;;3.28;1.30;;;11.60;99.90;;;;;;5078065;28;20101;-59
2021/12/28 16:00:08;;;;;;;1.25;0.82;;;11.50;99.90;;;;;;5067535;28;20764;-59
2021/12/28 16:02:38;;;;;;;1.02;0.80;;;11.50;99.90;;;;;;5076737;28;20083;-59
2021/12/28 16:05:06;;;;;;;1.20;1.00;;;11.50;99.90;;;;;;5073489;28;20101;-58
2021/12/28 16:07:33;;;;;;;2.65;1.08;;;11.50;99.90;;;;;;5077170;28;20129;-59
2021/12/28 16:10:00;;;;;;;1.55;1.15;;;11.50;99.90;;;;;;5076512;28;20170;-59
2021/12/28 16:12:27;;;;;;;2.03;1.00;;;11.50;99.90;;;;;;5074830;28;20059;-60
2021/12/28 16:14:54;;;;;;;0.98;0.68;;;11.50;99.90;;;;;;5074818;28;20048;-59
2021/12/28 16:17:21;;;;;;;2.15;0.82;;;11.50;99.90;;;;;;5074250;28;20060;-59
2021/12/28 16:19:48;;;;;;;0.80;0.70;;;11.50;99.90;;;;;;5075070;28;20112;-58
2021/12/28 16:22:15;;;;;;;0.88;0.80;;;11.40;99.90;;;;;;5074066;28;20052;-59
2021/12/28 16:24:43;;;;;;;1.45;0.75;;;11.40;99.90;;;;;;5076173;28;20160;-58
2021/12/28 16:27:10;;;;;;;1.50;1.05;;;11.40;99.90;;;;;;5075039;28;20051;-55
2021/12/28 16:29:39;;;;;;;1.15;0.73;;;11.40;99.90;;;;;;5074891;28;20475;-57
2021/12/28 16:32:06;;;;;;;1.23;0.73;;;11.40;99.90;;;;;;5066016;28;20101;-59
2021/12/28 16:34:33;;;;;;;0.93;0.70;;;11.50;99.90;;;;;;5074954;28;20542;-56
2021/12/28 16:37:01;;;;;;;0.88;0.63;;;11.50;99.90;;;;;;5076077;28;20431;-59
2021/12/28 16:39:30;;;;;;;2.00;0.93;;;11.50;99.90;;;;;;5074625;28;20139;-59
2021/12/28 16:41:57;;;;;;;1.88;0.85;;;11.50;99.90;;;;;;5075576;28;20052;-59
2021/12/28 16:44:24;;;;;;;0.50;0.50;;;11.50;99.90;;;;;;5076484;28;20056;-58
2021/12/28 16:46:55;;;;;;;0.93;0.65;;;11.40;99.90;;;;;;5076551;28;20158;-57
2021/12/28 16:49:22;;;;;;;1.20;0.65;;;11.50;99.90;;;;;;5077194;28;20044;-59
2021/12/28 16:51:51;;;;;;;1.27;0.82;;;11.50;99.90;;;;;;5076401;28;20063;-58
2021/12/28 16:54:19;;;;;;;2.38;1.13;;;11.50;99.90;;;;;;5075597;28;20578;-57
2021/12/28 16:56:46;;;;;;;2.05;0.90;;;11.40;99.90;;;;;;5076036;28;20048;-57
2021/12/28 16:59:14;;;;;;;1.70;0.95;;;11.40;99.90;;;;;;5074097;28;20150;-59
2021/12/28 17:01:41;;;;;;;1.80;1.05;;;11.40;99.90;;;;;;5074858;28;20048;-60
2021/12/28 17:04:08;;;;;;;1.60;1.00;;;11.40;99.90;;;;;;5075813;28;20162;-59
2021/12/28 17:06:37;;;;;;;1.35;0.73;;;11.40;99.90;;;;;;5077118;28;20052;-58
2021/12/28 17:09:04;;;;;;;0.85;0.80;;;11.40;99.90;;;;;;5076126;28;20710;-59
2021/12/28 17:11:31;;;;;;;1.80;0.77;;;11.40;99.90;;;;;;5074948;28;20530;-59
2021/12/28 17:13:58;;;;;;;2.17;0.98;;;11.40;99.90;;;;;;5075681;28;20111;-59
2021/12/28 17:16:25;;;;;;;2.72;1.10;;;11.40;99.90;;;;;;5076683;28;20150;-58
2021/12/28 17:18:52;;;;;;;1.05;0.70;;;11.40;99.90;;;;;;5075304;28;20051;-59
2021/12/28 17:21:20;;;;;;;1.98;0.80;;;11.40;99.90;;;;;;5077043;28;20113;-59
2021/12/28 17:23:47;;;;;;;1.42;0.98;;;11.40;99.90;;;;;;5075024;28;20521;-59
2021/12/28 17:26:14;;;;;;;1.75;1.15;;;11.40;99.90;;;;;;5076138;28;20047;-57
2021/12/28 17:28:43;;;;;;;3.15;1.05;;;11.40;99.90;;;;;;5077010;28;20084;-59
2021/12/28 17:31:11;;;;;;;1.00;0.70;;;11.40;99.90;;;;;;5077723;28;20044;-59
2021/12/28 17:33:38;;;;;;;0.98;0.60;;;11.40;99.90;;;;;;5079343;28;20507;-59
2021/12/28 17:36:05;;;;;;;1.38;0.90;;;11.40;99.90;;;;;;5078449;28;20527;-59
2021/12/28 17:38:32;;;;;;;1.02;0.80;;;11.40;99.90;;;;;;5077191;28;20075;-54
2021/12/28 17:40:59;;;;;;;2.22;1.10;;;11.40;99.90;;;;;;5079069;28;20191;-55
2021/12/28 17:43:27;;;;;;;1.02;0.88;;;11.40;99.90;;;;;;5075525;28;20055;-58
2021/12/28 17:45:56;;;;;;;1.67;1.05;;;11.40;99.90;;;;;;5070991;28;20098;-58
2021/12/28 17:48:24;;;;;;;1.85;1.27;;;11.30;99.90;;;;;;5079672;28;20055;-56
2021/12/28 17:50:52;;;;;;;1.25;0.80;;;11.30;99.90;;;;;;5080469;28;20123;-57
2021/12/28 17:53:19;;;;;;;2.25;1.10;;;11.40;99.90;;;;;;5080939;28;20056;-56
2021/12/28 17:55:47;;;;;;;1.40;0.98;;;11.30;99.90;;;;;;5079530;28;20762;-57
2021/12/28 17:58:14;;;;;;;1.80;0.98;;;11.30;99.90;;;;;;5080400;28;20066;-58
2021/12/28 18:00:41;;;;;;;1.50;1.00;;;11.30;99.90;;;;;;5078655;28;20052;-57
2021/12/28 18:03:09;;;;;;;1.85;0.98;;;11.30;99.90;;;;;;5080566;28;20044;-58
2021/12/28 18:05:40;;;;;;;1.55;1.08;;;11.30;99.90;;;;;;5072443;28;20052;-58
2021/12/28 18:08:07;;;;;;;1.48;1.10;;;11.30;99.90;;;;;;5079638;28;20083;-58
2021/12/28 18:10:36;;;;;;;1.95;1.40;;;11.30;99.90;;;;;;5079040;28;20141;-55
2021/12/28 18:13:06;;;;;;;2.20;1.42;;;11.30;99.90;;;;;;5077677;28;20048;-57
2021/12/28 18:15:33;;;;;;;2.00;1.38;;;11.20;99.90;;;;;;5078612;28;20445;-57
2021/12/28 18:18:00;;;;;;;2.25;1.27;;;11.20;99.90;;;;;;5078202;28;20341;-54
2021/12/28 18:20:28;;;;;;;1.98;1.10;;;11.20;99.90;;;;;;5076986;28;20051;-56
2021/12/28 18:22:54;;;;;;;0.85;0.77;;;11.20;99.90;;;;;;5079453;28;20072;-58
2021/12/28 18:25:21;;;;;;;1.50;0.98;;;11.20;99.90;;;;;;5079567;28;20140;-58
2021/12/28 18:27:50;;;;;;;1.50;1.00;;;11.20;99.90;;;;;;5079840;28;20154;-57
2021/12/28 18:30:17;;;;;;;1.30;0.98;;;11.20;99.90;;;;;;5077717;28;20511;-58
2021/12/28 18:32:57;;;;;;;1.65;0.90;;;11.20;99.90;;;;;;5078182;28;20048;-58
2021/12/28 18:35:28;;;;;;;1.13;0.98;;;11.20;99.90;;;;;;5077016;28;20151;-57
2021/12/28 18:37:55;;;;;;;1.63;1.08;;;11.20;99.90;;;;;;5076726;28;20599;-58
2021/12/28 18:40:22;;;;;;;1.52;0.75;;;11.20;99.90;;;;;;5077469;28;20865;-57
2021/12/28 18:42:49;;;;;;;1.85;1.00;;;11.20;99.90;;;;;;5073812;28;20436;-57
2021/12/28 18:45:16;;;;;;;2.25;1.08;;;11.20;99.90;;;;;;5075902;28;20044;-58
2021/12/28 18:47:43;;;;;;;1.25;1.08;;;11.20;99.90;;;;;;5078891;28;20138;-58
2021/12/28 18:50:11;;;;;;;1.33;1.10;;;11.20;99.90;;;;;;5077863;28;20550;-59
2021/12/28 18:52:39;;;;;;;1.73;0.90;;;11.10;99.90;;;;;;5078461;28;20104;-59
2021/12/28 18:55:07;;;;;;;1.55;0.90;;;11.10;99.90;;;;;;5077352;28;20395;-57
2021/12/28 18:57:36;;;;;;;1.10;0.90;;;11.10;99.90;;;;;;5077577;28;20135;-56
2021/12/28 19:00:15;;;;;;;1.73;1.00;;;11.10;99.90;;;;;;5075648;28;20067;-58
2021/12/28 19:02:51;;;;;;;1.23;1.05;;;11.10;99.90;;;;;;5077862;28;20178;-58
2021/12/28 19:05:18;;;;;;;2.03;1.08;;;11.10;99.90;;;;;;5078211;28;20051;-57
2021/12/28 19:07:45;;;;;;;1.58;1.10;;;11.00;99.90;;;;;;5076177;28;20076;-58
2021/12/28 19:10:23;;;;;;;2.55;1.23;;;11.10;99.90;;;;;;5078825;28;20105;-58
2021/12/28 19:12:52;;;;;;;2.33;1.35;;;11.00;99.90;;;;;;5077703;28;20059;-58
2021/12/28 19:15:18;;;;;;;2.50;1.08;;;11.00;99.90;;;;;;5077978;28;20495;-57
2021/12/28 19:17:49;;;;;;;1.63;1.17;;;11.00;99.90;;;;;;5074911;28;20047;-58
2021/12/28 19:20:16;;;;;;;1.58;1.10;;;11.00;99.90;;;;;;5078934;28;20066;-57
2021/12/28 19:22:43;;;;;;;2.75;1.50;;;11.00;99.90;;;;;;5078695;28;20551;-57
2021/12/28 19:25:11;;;;;;;1.95;1.20;;;11.00;99.90;;;;;;5078473;28;20082;-58
2021/12/28 19:27:37;;;;;;;2.35;1.40;;;11.00;99.90;;;;;;5073640;28;20604;-58
2021/12/28 19:30:06;;;;;;;1.60;1.20;;;11.00;99.90;;;;;;5077630;28;20048;-58
2021/12/28 19:32:33;;;;;;;1.60;1.10;;;11.00;99.90;;;;;;5077247;28;20459;-57
2021/12/28 19:35:01;;;;;;;2.53;1.35;;;11.00;99.90;;;;;;5078219;28;20067;-58
2021/12/28 19:37:29;;;;;;;2.08;1.40;;;11.00;99.90;;;;;;5058742;28;20048;-57
2021/12/28 19:39:56;;;;;;;1.92;1.15;;;10.90;99.90;;;;;;5076420;28;20044;-59
2021/12/28 19:42:23;;;;;;;2.35;1.05;;;10.90;99.90;;;;;;5076722;28;20117;-57
2021/12/28 19:44:50;;;;;;;2.28;1.13;;;10.90;99.90;;;;;;5076343;28;20162;-57
2021/12/28 19:47:17;;;;;;;2.17;1.23;;;10.90;99.90;;;;;;5077204;28;20048;-58
2021/12/28 19:49:44;;;;;;;1.98;1.00;;;10.90;99.90;;;;;;5055574;28;20109;-55
2021/12/28 19:52:10;;;;;;;1.38;1.05;;;10.90;99.90;;;;;;5077624;28;21027;-55
2021/12/28 19:54:39;;;;;;;3.42;1.60;;;10.90;99.90;;;;;;5075846;28;20099;-54
2021/12/28 19:57:08;;;;;;;1.70;1.20;;;10.90;99.90;;;;;;5059122;28;20761;-55
2021/12/28 19:59:35;;;;;;;1.20;0.80;;;11.00;99.90;;;;;;5076749;28;20080;-56
2021/12/28 20:02:02;;;;;;;2.13;1.10;;;11.00;99.90;;;;;;5076860;28;20215;-59
2021/12/28 20:04:29;;;;;;;1.40;0.90;;;11.00;99.90;;;;;;5075173;28;20068;-57
2021/12/28 20:06:56;;;;;;;1.38;0.90;;;11.00;99.90;;;;;;5074696;28;20230;-54
2021/12/28 20:09:25;;;;;;;1.77;1.10;;;11.00;99.90;;;;;;5074987;28;20075;-56
2021/12/28 20:11:52;;;;;;;2.00;1.20;;;11.00;99.90;;;;;;5076366;28;20071;-58
2021/12/28 20:14:19;;;;;;;2.28;1.13;;;11.00;99.90;;;;;;5075666;28;21617;-59
2021/12/28 20:16:47;;;;;;;2.80;1.00;;;11.00;99.90;;;;;;5076905;28;20138;-57
2021/12/28 20:19:14;;;;;;;0.85;0.77;;;11.00;99.90;;;;;;5075723;28;20063;-55
2021/12/28 20:21:41;;;;;;;1.30;1.08;;;11.00;99.90;;;;;;5077922;28;20056;-58
2021/12/28 20:24:10;;;;;;;1.38;0.80;;;11.00;99.90;;;;;;5077489;28;20568;-57
2021/12/28 20:26:37;;;;;;;1.60;0.95;;;11.00;99.90;;;;;;5077126;28;20051;-57
2021/12/28 20:29:04;;;;;;;1.65;1.00;;;11.00;99.90;;;;;;5076787;28;20052;-58
2021/12/28 20:31:31;;;;;;;1.63;0.98;;;11.00;99.90;;;;;;5076682;28;20651;-59
2021/12/28 20:33:59;;;;;;;2.08;1.00;;;11.00;99.90;;;;;;5077547;28;20163;-57
2021/12/28 20:36:27;;;;;;;1.00;0.80;;;11.00;99.90;;;;;;5076427;28;20062;-58
2021/12/28 20:38:55;;;;;;;1.05;0.70;;;11.00;99.90;;;;;;5076095;28;20044;-58
2021/12/28 20:41:22;;;;;;;1.52;1.00;;;11.00;99.90;;;;;;5076320;28;20080;-56
2021/12/28 20:43:49;;;;;;;1.88;0.90;;;11.00;99.90;;;;;;5075174;28;20044;-58
2021/12/28 20:46:18;;;;;;;1.02;0.70;;;11.00;99.90;;;;;;5076971;28;20119;-58
2021/12/28 20:48:45;;;;;;;1.20;0.73;;;10.90;99.90;;;;;;5076700;28;20446;-58
2021/12/28 20:51:12;;;;;;;1.30;0.85;;;10.90;99.90;;;;;;5075955;28;20043;-58
2021/12/28 20:53:59;;;;;;;0.75;0.75;;;10.90;99.90;;;;;;5071058;28;20052;-58
2021/12/28 20:56:26;;;;;;;0.70;0.70;;;10.90;99.90;;;;;;5076004;28;20052;-58
2021/12/28 20:58:52;;;;;;;3.75;0.90;;;10.90;99.90;;;;;;5074785;28;20131;-57
2021/12/28 21:01:19;;;;;;;0.90;0.77;;;10.90;99.90;;;;;;5069648;28;20082;-54
2021/12/28 21:03:46;;;;;;;1.35;0.90;;;10.90;99.90;;;;;;5077387;28;20395;-58
2021/12/28 21:06:16;;;;;;;1.70;1.23;;;10.90;99.90;;;;;;5077786;28;20480;-58
2021/12/28 21:08:43;;;;;;;3.30;1.10;;;10.90;99.90;;;;;;5080032;28;20048;-58
2021/12/28 21:11:10;;;;;;;1.88;1.08;;;10.90;99.90;;;;;;5081475;28;20082;-58
2021/12/28 21:13:37;;;;;;;1.70;0.90;;;10.90;99.90;;;;;;5078018;28;20052;-58
2021/12/28 21:16:06;;;;;;;1.83;0.98;;;10.90;99.90;;;;;;5080911;28;20052;-57
2021/12/28 21:18:33;;;;;;;1.33;0.80;;;10.90;99.90;;;;;;5078342;28;20055;-59
2021/12/28 21:21:00;;;;;;;1.00;0.60;;;10.90;99.90;;;;;;5080283;28;20083;-58
2021/12/28 21:23:26;;;;;;;0.82;0.50;;;10.90;99.90;;;;;;5080017;28;20052;-57
2021/12/28 21:25:53;;;;;;;1.67;0.70;;;10.90;99.90;;;;;;5080711;28;20051;-53
2021/12/28 21:28:20;;;;;;;1.13;1.02;;;10.90;99.90;;;;;;5079956;28;20052;-56
2021/12/28 21:30:47;;;;;;;2.53;0.98;;;10.90;99.90;;;;;;5080145;28;20522;-59
2021/12/28 21:33:21;;;;;;;3.10;1.95;;;10.80;99.90;;;;;;5080733;28;20098;-58
2021/12/28 21:35:48;;;;;;;2.13;1.10;;;10.80;99.90;;;;;;5080247;28;20504;-58
2021/12/28 21:38:15;;;;;;;0.80;0.70;;;10.80;99.90;;;;;;5080176;28;20131;-55
2021/12/28 21:40:42;;;;;;;1.45;0.82;;;10.80;99.90;;;;;;5079188;28;20060;-59
2021/12/28 21:43:09;;;;;;;1.13;0.63;;;10.80;99.90;;;;;;5079686;28;20462;-59
2021/12/28 21:45:36;;;;;;;1.30;0.80;;;10.80;99.90;;;;;;5079364;28;20052;-56
2021/12/28 21:48:03;;;;;;;1.13;0.65;;;10.70;99.90;;;;;;5075191;28;20094;-59
2021/12/28 21:50:30;;;;;;;1.38;0.70;;;10.80;99.90;;;;;;5078170;28;20269;-56
2021/12/28 21:52:57;;;;;;;0.85;0.70;;;10.80;99.90;;;;;;5081153;28;20105;-57
2021/12/28 21:55:24;;;;;;;1.00;0.50;;;10.80;99.90;;;;;;5078498;28;20060;-57
2021/12/28 21:57:52;;;;;;;1.48;1.10;;;10.80;99.90;;;;;;5079880;28;20453;-59
2021/12/28 22:00:21;;;;;;;1.30;0.75;;;10.80;99.90;;;;;;5078434;28;20051;-55
2021/12/28 22:02:48;;;;;;;1.30;0.80;;;10.80;99.90;;;;;;5078289;28;20083;-59
2021/12/28 22:05:15;;;;;;;1.50;0.80;;;10.80;99.90;;;;;;5080407;28;20062;-58
2021/12/28 22:07:42;;;;;;;1.55;0.80;;;10.80;99.90;;;;;;5078556;28;20051;-57
2021/12/28 22:10:10;;;;;;;1.30;0.88;;;10.80;99.90;;;;;;5081001;28;20083;-56
2021/12/28 22:12:38;;;;;;;1.30;0.80;;;10.80;99.90;;;;;;5079700;28;20062;-51
2021/12/28 22:15:05;;;;;;;1.05;0.80;;;10.80;99.90;;;;;;5078740;28;20143;-57
2021/12/28 22:17:32;;;;;;;1.35;0.80;;;10.80;99.90;;;;;;5077788;28;20068;-53
2021/12/28 22:20:02;;;;;;;1.50;0.82;;;10.80;99.90;;;;;;5078770;28;20324;-58
2021/12/28 22:22:29;;;;;;;1.20;0.75;;;10.80;99.90;;;;;;5077064;28;20051;-55
2021/12/28 22:24:56;;;;;;;0.98;0.80;;;10.70;99.90;;;;;;5077416;28;20471;-57
2021/12/28 22:27:24;;;;;;;1.38;0.73;;;10.70;99.90;;;;;;5070496;28;20064;-54
2021/12/28 22:29:51;;;;;;;0.68;0.60;;;10.70;99.90;;;;;;5078002;28;20713;-56
2021/12/28 22:32:19;;;;;;;1.42;0.80;;;10.70;99.90;;;;;;5077111;28;20044;-57
2021/12/28 22:34:51;;;;;;;1.85;1.02;;;10.70;99.90;;;;;;5078799;28;20055;-58
2021/12/28 22:37:17;;;;;;;1.10;0.80;;;10.70;99.90;;;;;;5076419;28;20161;-58
2021/12/28 22:39:46;;;;;;;1.45;0.90;;;10.70;99.90;;;;;;5078281;28;20127;-58
2021/12/28 22:42:13;;;;;;;1.27;0.90;;;10.60;99.90;;;;;;5071667;28;20048;-58
2021/12/28 22:44:40;;;;;;;2.13;0.80;;;10.60;99.90;;;;;;5077564;28;20080;-57
2021/12/28 22:47:07;;;;;;;1.23;0.90;;;10.60;99.90;;;;;;5078934;28;20039;-58
2021/12/28 22:49:34;;;;;;;1.42;0.90;;;10.60;99.90;;;;;;5077965;28;20460;-58
2021/12/28 22:52:03;;;;;;;1.65;1.10;;;10.60;99.90;;;;;;5080048;28;20048;-57
2021/12/28 22:54:31;;;;;;;1.73;1.00;;;10.50;99.90;;;;;;5078961;28;20167;-56
2021/12/28 22:56:58;;;;;;;1.50;0.90;;;10.50;99.90;;;;;;5077336;28;20084;-58
2021/12/28 22:59:25;;;;;;;1.65;1.25;;;10.50;99.90;;;;;;5077163;28;20089;-57
2021/12/28 23:01:52;;;;;;;2.38;1.10;;;10.40;99.90;;;;;;5075182;28;20131;-55
2021/12/28 23:04:19;;;;;;;1.98;1.20;;;10.40;99.90;;;;;;5078272;28;20047;-57
2021/12/28 23:06:48;;;;;;;1.52;1.02;;;10.40;99.90;;;;;;5076921;28;20050;-58
2021/12/28 23:09:15;;;;;;;1.83;1.02;;;10.30;99.90;;;;;;5076845;28;20131;-55
2021/12/28 23:11:43;;;;;;;2.67;1.35;;;10.30;99.90;;;;;;5078910;28;20913;-53
2021/12/28 23:14:10;;;;;;;1.33;1.00;;;10.30;99.90;;;;;;5077425;28;20084;-58
2021/12/28 23:16:37;;;;;;;1.10;0.93;;;10.30;99.90;;;;;;5078001;28;20145;-57
2021/12/28 23:19:07;;;;;;;1.40;1.17;;;10.30;99.90;;;;;;5075070;28;20532;-57
2021/12/28 23:21:37;;;;;;;3.65;1.45;;;10.30;99.90;;;;;;5077314;28;20526;-57
2021/12/28 23:24:04;;;;;;;2.03;1.42;;;10.30;99.90;;;;;;5078302;28;20064;-56
2021/12/28 23:26:31;;;;;;;1.70;1.10;;;10.20;99.90;;;;;;5075676;28;20051;-56
2021/12/28 23:28:58;;;;;;;3.30;1.60;;;10.20;99.90;;;;;;5075926;28;20139;-58
2021/12/28 23:31:29;;;;;;;3.88;1.40;;;10.20;99.90;;;;;;5078160;28;20144;-59
2021/12/28 23:33:59;;;;;;;2.50;1.35;;;10.20;99.90;;;;;;5075892;28;20177;-54
2021/12/28 23:36:27;;;;;;;3.03;1.40;;;10.10;99.90;;;;;;5077973;28;20060;-59
2021/12/28 23:38:55;;;;;;;1.83;0.98;;;10.20;99.90;;;;;;5078250;28;20155;-57
2021/12/28 23:41:21;;;;;;;1.92;1.02;;;10.20;99.90;;;;;;5077574;28;20048;-54
2021/12/28 23:43:48;;;;;;;3.80;1.70;;;10.20;99.90;;;;;;5074841;28;20850;-56
2021/12/28 23:46:15;;;;;;;1.80;1.30;;;10.20;99.90;;;;;;5078429;28;20729;-58
2021/12/28 23:48:46;;;;;;;1.67;1.10;;;10.10;99.90;;;;;;5074958;28;20105;-57
2021/12/28 23:51:14;;;;;;;3.72;1.52;;;10.10;99.90;;;;;;5072623;28;20071;-56
2021/12/28 23:53:42;;;;;;;2.88;1.20;;;10.10;99.90;;;;;;5078307;28;20078;-58
2021/12/28 23:56:11;;;;;;;2.25;1.38;;;10.10;99.90;;;;;;5078535;28;20052;-58
2021/12/28 23:58:38;;;;;;;1.48;1.17;;;10.00;99.90;;;;;;5077307;28;20059;-54
